This demonstration page uses our WeatherBlox Daily Observations layout. Learn more.

Left ArrowRight Arrow

39.01783, -85.05884

Hourly Observations for November 14, 2020

Temp ( °F °C ) Dew Point ( °F °C ) Humidity (%) Winds ( mph kmh ) Pressure ( in mb ) Visibility ( mi km ) Precip ( " mm )
12:52 am 00:52 Mostly Clear 37 2.8 26 -3.3 65 65 NE 6 9 30.19 1022 10 16.0934 0 0
1:52 am 01:52 Mostly Clear 34 1.1 26 -3.3 73 73 N 6 9 30.2 1023 10 16.0934 0 0
2:52 am 02:52 Mostly Cloudy 35 1.7 27 -2.8 72 72 NNE 5 7 30.2 1023 10 16.0934 0 0
3:52 am 03:52 Partly Cloudy 34 1.1 28 -2.2 79 79 E 6 9 30.19 1023 10 16.0934 0 0
4:52 am 04:52 Partly Cloudy 34 1.1 28 -2.2 79 79 E 3 6 30.19 1022 10 16.0934 0 0
5:52 am 05:52 Cloudy 35 1.7 28 -2.2 76 76 E 7 11 30.19 1022 10 16.0934 0 0
6:52 am 06:52 Cloudy 35 1.7 28 -2.2 76 76 ESE 7 11 30.19 1022 9 14.48406 0 0
7:52 am 07:52 Cloudy 36 2.2 29 -1.7 76 76 E 7 11 30.2 1023 8 12.87472 0 0
8:52 am 08:52 Mostly Cloudy 39 3.9 31 -0.6 73 73 SE 8 13 30.2 1023 8 12.87472 0 0
9:52 am 09:52 Mostly Cloudy 40 4.4 31 -0.6 70 70 ESE 8 13 30.18 1022 9 14.48406 0 0
10:52 am 10:52 Mostly Cloudy 45 7.2 33 0.6 63 63 SE 10 17 30.16 1021 10 16.0934 0 0
11:52 am 11:52 Cloudy 47 8.3 34 1.1 61 61 SE 10 17 30.13 1020 10 16.0934 0 0
12:52 pm 12:52 Cloudy 48 8.9 35 1.7 61 61 E 3 6 30.12 1020 10 16.0934 0 0
1:52 pm 13:52 Mostly Cloudy 52 11.1 36 2.2 55 55 S 8 13 30.1 1019 10 16.0934 0 0
2:52 pm 14:52 Mostly Cloudy 53 11.7 36 2.2 52 52 SE 10 17 30.04 1017 10 16.0934 0 0
3:52 pm 15:52 Cloudy 53 11.7 37 2.8 55 55 SE 12 19 30.03 1017 10 16.0934 0 0
4:52 pm 16:52 Mostly Cloudy 53 11.7 36 2.2 52 52 SE 13 20 30.01 1016 10 16.0934 0 0
5:52 pm 17:52 Mostly Cloudy 52 11.1 37 2.8 57 57 ESE 10 17 29.99 1016 10 16.0934 0 0
6:52 pm 18:52 Cloudy 53 11.7 38 3.3 57 57 SE 14 22 29.98 1015 10 16.0934 0 0
7:52 pm 19:52 Cloudy 53 11.7 37 2.8 55 55 SE 16 26 29.94 1014 10 16.0934 0 0
8:52 pm 20:52 Cloudy 54 12.2 36 2.2 51 51 SE 10 17 29.93 1013 10 16.0934 0 0
9:52 pm 21:52 Cloudy with Light Rain 53 11.7 38 3.3 57 57 SSE 16 26 29.9 1013 10 16.0934 0.001 0.001
10:52 pm 22:52 Cloudy 54 12.2 38 3.3 55 55 SSE 15 24 29.84 1011 10 16.0934 0.001 0.001
11:52 pm 23:52 Mostly Cloudy 55 12.8 36 2.2 49 49 S 16 26 29.8 1009 10 16.0934 0 0

Powered by AerisWeather